DNAA/ABV METAR and TAF weather

Enter ICAO airport designator
Station Type Date Time Source
DNAA METAR 2021/05/10 23:00 UTC NOAA

DNAA 102300Z 08002KT CAVOK 25/24 Q1014 NOSIG


Station Type Date Time Source
DNAA Decoded METAR 2021/05/10 23:00 UTC NOAA

Station name not available
May 10, 2021 - 07:00 PM EDT / 2021.05.10 2300 UTC
Wind: from the E (080 degrees) at 2 MPH (2 KT):0
Visibility: greater than 7 mile(s):0
Temperature: 77 F (25 C)
Dew Point: 75 F (24 C)
Relative Humidity: 94%
Pressure (altimeter): 29.94 in. Hg (1014 hPa)
ob: DNAA 102300Z 08002KT CAVOK 25/24 Q1014 NOSIG
cycle: 23

Station Type Date Time Source
DNAA TAF 2021/05/10 18:21 UTC NOAA

TAF TAF DNAA 101700Z 1018/1124 29007KT 9999 SCT014
TEMPO 1020/1024 11005KT
BECMG 1110/1112 22010KT BKN012 PROB30
TEMPO 1114/1118 TS FEW020CB
BECMG 1117/1120 14005KT

Example: see airport list